sensor_id;sensor_type;location;lat;lon;timestamp;P1;durP1;ratioP1;P2;durP2;ratioP2
51382;SDS011;37475;43.358;1.248;2023-01-15T00:01:24;64.40;;;31.08;;
51382;SDS011;37475;43.358;1.248;2023-01-15T00:03:50;63.80;;;30.52;;
51382;SDS011;37475;43.358;1.248;2023-01-15T00:06:17;64.13;;;30.70;;
51382;SDS011;37475;43.358;1.248;2023-01-15T00:08:45;50.83;;;28.50;;
51382;SDS011;37475;43.358;1.248;2023-01-15T00:11:11;61.58;;;31.98;;
51382;SDS011;37475;43.358;1.248;2023-01-15T00:13:38;55.30;;;30.60;;
51382;SDS011;37475;43.358;1.248;2023-01-15T00:16:09;66.65;;;41.15;;
51382;SDS011;37475;43.358;1.248;2023-01-15T00:21:05;57.30;;;28.77;;
51382;SDS011;37475;43.358;1.248;2023-01-15T00:23:34;52.42;;;27.02;;
51382;SDS011;37475;43.358;1.248;2023-01-15T00:26:19;57.63;;;28.88;;
51382;SDS011;37475;43.358;1.248;2023-01-15T00:29:05;56.30;;;30.85;;
51382;SDS011;37475;43.358;1.248;2023-01-15T00:31:32;54.90;;;29.45;;
51382;SDS011;37475;43.358;1.248;2023-01-15T00:33:59;52.05;;;27.63;;
51382;SDS011;37475;43.358;1.248;2023-01-15T00:36:26;50.92;;;27.40;;
51382;SDS011;37475;43.358;1.248;2023-01-15T00:38:52;64.03;;;32.83;;
51382;SDS011;37475;43.358;1.248;2023-01-15T00:41:17;50.97;;;27.38;;
51382;SDS011;37475;43.358;1.248;2023-01-15T00:43:43;66.20;;;36.10;;
51382;SDS011;37475;43.358;1.248;2023-01-15T00:46:10;51.95;;;29.38;;
51382;SDS011;37475;43.358;1.248;2023-01-15T00:48:36;49.45;;;26.95;;
51382;SDS011;37475;43.358;1.248;2023-01-15T00:51:03;47.70;;;28.35;;
51382;SDS011;37475;43.358;1.248;2023-01-15T00:53:29;45.58;;;25.25;;
51382;SDS011;37475;43.358;1.248;2023-01-15T00:55:56;46.72;;;27.88;;
51382;SDS011;37475;43.358;1.248;2023-01-15T00:58:22;44.35;;;24.13;;
51382;SDS011;37475;43.358;1.248;2023-01-15T01:00:55;37.28;;;21.58;;
51382;SDS011;37475;43.358;1.248;2023-01-15T01:05:48;40.42;;;22.77;;
51382;SDS011;37475;43.358;1.248;2023-01-15T01:08:14;35.42;;;21.08;;
51382;SDS011;37475;43.358;1.248;2023-01-15T01:10:41;37.72;;;21.02;;
51382;SDS011;37475;43.358;1.248;2023-01-15T01:13:07;45.88;;;26.15;;
51382;SDS011;37475;43.358;1.248;2023-01-15T01:15:34;40.47;;;25.00;;
51382;SDS011;37475;43.358;1.248;2023-01-15T01:18:01;37.90;;;24.45;;
51382;SDS011;37475;43.358;1.248;2023-01-15T01:20:29;38.00;;;24.00;;
51382;SDS011;37475;43.358;1.248;2023-01-15T01:22:55;36.05;;;21.80;;
51382;SDS011;37475;43.358;1.248;2023-01-15T01:25:21;37.50;;;21.95;;
51382;SDS011;37475;43.358;1.248;2023-01-15T01:27:47;39.17;;;21.60;;
51382;SDS011;37475;43.358;1.248;2023-01-15T01:30:14;37.45;;;21.73;;
51382;SDS011;37475;43.358;1.248;2023-01-15T01:32:43;37.38;;;22.25;;
51382;SDS011;37475;43.358;1.248;2023-01-15T01:35:09;34.42;;;21.50;;
51382;SDS011;37475;43.358;1.248;2023-01-15T01:37:36;36.10;;;22.80;;
51382;SDS011;37475;43.358;1.248;2023-01-15T01:40:02;41.20;;;23.75;;
51382;SDS011;37475;43.358;1.248;2023-01-15T01:42:29;36.33;;;20.67;;
51382;SDS011;37475;43.358;1.248;2023-01-15T01:45:06;42.53;;;24.35;;
51382;SDS011;37475;43.358;1.248;2023-01-15T01:47:50;40.00;;;22.45;;
51382;SDS011;37475;43.358;1.248;2023-01-15T01:50:20;36.35;;;21.80;;
51382;SDS011;37475;43.358;1.248;2023-01-15T01:52:48;37.08;;;21.23;;
51382;SDS011;37475;43.358;1.248;2023-01-15T01:55:21;43.05;;;23.35;;
51382;SDS011;37475;43.358;1.248;2023-01-15T01:57:49;32.45;;;19.33;;
51382;SDS011;37475;43.358;1.248;2023-01-15T02:00:19;31.83;;;19.42;;
51382;SDS011;37475;43.358;1.248;2023-01-15T02:02:48;32.17;;;20.40;;
51382;SDS011;37475;43.358;1.248;2023-01-15T02:05:17;37.25;;;20.85;;
51382;SDS011;37475;43.358;1.248;2023-01-15T02:07:53;35.90;;;21.50;;
51382;SDS011;37475;43.358;1.248;2023-01-15T02:10:19;35.75;;;21.60;;
51382;SDS011;37475;43.358;1.248;2023-01-15T02:12:48;40.03;;;21.95;;
51382;SDS011;37475;43.358;1.248;2023-01-15T02:15:46;36.28;;;21.13;;
51382;SDS011;37475;43.358;1.248;2023-01-15T02:21:49;32.58;;;19.40;;
51382;SDS011;37475;43.358;1.248;2023-01-15T02:24:46;33.60;;;19.25;;
51382;SDS011;37475;43.358;1.248;2023-01-15T02:27:32;28.95;;;16.77;;
51382;SDS011;37475;43.358;1.248;2023-01-15T02:35:17;35.60;;;19.48;;
51382;SDS011;37475;43.358;1.248;2023-01-15T02:38:04;32.05;;;18.75;;
51382;SDS011;37475;43.358;1.248;2023-01-15T02:40:34;38.15;;;20.63;;
51382;SDS011;37475;43.358;1.248;2023-01-15T02:43:01;30.33;;;18.15;;
51382;SDS011;37475;43.358;1.248;2023-01-15T02:45:29;26.20;;;14.05;;
51382;SDS011;37475;43.358;1.248;2023-01-15T02:48:01;28.35;;;16.60;;
51382;SDS011;37475;43.358;1.248;2023-01-15T02:50:35;24.83;;;14.48;;
51382;SDS011;37475;43.358;1.248;2023-01-15T02:53:06;24.35;;;13.52;;
51382;SDS011;37475;43.358;1.248;2023-01-15T02:55:38;20.98;;;12.60;;
51382;SDS011;37475;43.358;1.248;2023-01-15T02:58:10;18.27;;;11.43;;
51382;SDS011;37475;43.358;1.248;2023-01-15T03:00:43;22.45;;;13.13;;
51382;SDS011;37475;43.358;1.248;2023-01-15T03:06:14;23.73;;;13.18;;
51382;SDS011;37475;43.358;1.248;2023-01-15T03:09:06;23.10;;;13.13;;
51382;SDS011;37475;43.358;1.248;2023-01-15T03:11:33;23.38;;;13.00;;
51382;SDS011;37475;43.358;1.248;2023-01-15T03:17:01;21.67;;;12.13;;
51382;SDS011;37475;43.358;1.248;2023-01-15T03:20:22;20.30;;;12.20;;
51382;SDS011;37475;43.358;1.248;2023-01-15T03:22:53;24.52;;;13.07;;
51382;SDS011;37475;43.358;1.248;2023-01-15T03:25:33;23.85;;;12.07;;
51382;SDS011;37475;43.358;1.248;2023-01-15T03:28:03;21.45;;;12.40;;
51382;SDS011;37475;43.358;1.248;2023-01-15T03:30:31;23.27;;;12.50;;
51382;SDS011;37475;43.358;1.248;2023-01-15T03:32:58;27.23;;;12.20;;
51382;SDS011;37475;43.358;1.248;2023-01-15T03:38:26;21.75;;;12.75;;
51382;SDS011;37475;43.358;1.248;2023-01-15T03:41:04;22.30;;;14.45;;
51382;SDS011;37475;43.358;1.248;2023-01-15T03:44:05;26.52;;;13.63;;
51382;SDS011;37475;43.358;1.248;2023-01-15T03:46:53;26.02;;;15.25;;
51382;SDS011;37475;43.358;1.248;2023-01-15T03:52:43;20.75;;;11.95;;
51382;SDS011;37475;43.358;1.248;2023-01-15T03:55:31;23.33;;;12.65;;
51382;SDS011;37475;43.358;1.248;2023-01-15T03:58:20;22.67;;;13.07;;
51382;SDS011;37475;43.358;1.248;2023-01-15T04:01:02;25.60;;;13.52;;
51382;SDS011;37475;43.358;1.248;2023-01-15T04:03:30;25.88;;;15.68;;
51382;SDS011;37475;43.358;1.248;2023-01-15T04:05:58;23.02;;;13.60;;
51382;SDS011;37475;43.358;1.248;2023-01-15T04:08:27;26.35;;;13.90;;
51382;SDS011;37475;43.358;1.248;2023-01-15T04:10:58;22.90;;;12.38;;
51382;SDS011;37475;43.358;1.248;2023-01-15T04:13:26;25.38;;;13.82;;
51382;SDS011;37475;43.358;1.248;2023-01-15T04:15:52;23.88;;;13.80;;
51382;SDS011;37475;43.358;1.248;2023-01-15T04:18:19;23.00;;;14.05;;
51382;SDS011;37475;43.358;1.248;2023-01-15T04:20:46;25.65;;;13.63;;
51382;SDS011;37475;43.358;1.248;2023-01-15T04:23:12;21.95;;;13.15;;
51382;SDS011;37475;43.358;1.248;2023-01-15T04:25:39;23.27;;;12.95;;
51382;SDS011;37475;43.358;1.248;2023-01-15T04:28:06;23.38;;;13.10;;
51382;SDS011;37475;43.358;1.248;2023-01-15T04:30:33;20.85;;;12.02;;
51382;SDS011;37475;43.358;1.248;2023-01-15T04:33:00;20.65;;;11.98;;
51382;SDS011;37475;43.358;1.248;2023-01-15T04:35:27;21.50;;;12.32;;
51382;SDS011;37475;43.358;1.248;2023-01-15T04:37:53;22.80;;;12.32;;
51382;SDS011;37475;43.358;1.248;2023-01-15T04:40:23;21.48;;;11.88;;
51382;SDS011;37475;43.358;1.248;2023-01-15T04:43:09;22.27;;;12.98;;
51382;SDS011;37475;43.358;1.248;2023-01-15T04:45:55;20.98;;;11.48;;
51382;SDS011;37475;43.358;1.248;2023-01-15T04:48:21;18.58;;;11.38;;
51382;SDS011;37475;43.358;1.248;2023-01-15T04:50:47;19.98;;;11.73;;
51382;SDS011;37475;43.358;1.248;2023-01-15T04:53:13;24.23;;;13.95;;
51382;SDS011;37475;43.358;1.248;2023-01-15T04:55:39;26.50;;;14.98;;
51382;SDS011;37475;43.358;1.248;2023-01-15T04:58:05;26.65;;;15.43;;
51382;SDS011;37475;43.358;1.248;2023-01-15T05:00:31;27.65;;;15.40;;
51382;SDS011;37475;43.358;1.248;2023-01-15T05:02:57;29.10;;;15.52;;
51382;SDS011;37475;43.358;1.248;2023-01-15T05:05:23;22.83;;;13.40;;
51382;SDS011;37475;43.358;1.248;2023-01-15T05:07:49;23.92;;;13.75;;
51382;SDS011;37475;43.358;1.248;2023-01-15T05:10:15;24.48;;;12.80;;
51382;SDS011;37475;43.358;1.248;2023-01-15T05:12:41;25.42;;;12.93;;
51382;SDS011;37475;43.358;1.248;2023-01-15T05:15:07;23.77;;;13.40;;
51382;SDS011;37475;43.358;1.248;2023-01-15T05:17:33;25.33;;;15.40;;
51382;SDS011;37475;43.358;1.248;2023-01-15T05:19:59;27.40;;;15.30;;
51382;SDS011;37475;43.358;1.248;2023-01-15T05:22:25;28.80;;;15.65;;
51382;SDS011;37475;43.358;1.248;2023-01-15T05:24:51;23.08;;;14.38;;
51382;SDS011;37475;43.358;1.248;2023-01-15T05:27:17;24.73;;;14.93;;
51382;SDS011;37475;43.358;1.248;2023-01-15T05:29:42;24.30;;;14.38;;
51382;SDS011;37475;43.358;1.248;2023-01-15T05:32:08;26.52;;;15.88;;
51382;SDS011;37475;43.358;1.248;2023-01-15T05:34:34;27.73;;;16.08;;
51382;SDS011;37475;43.358;1.248;2023-01-15T05:37:00;26.58;;;14.77;;
51382;SDS011;37475;43.358;1.248;2023-01-15T05:39:26;26.75;;;14.20;;
51382;SDS011;37475;43.358;1.248;2023-01-15T05:41:52;22.40;;;14.27;;
51382;SDS011;37475;43.358;1.248;2023-01-15T05:44:27;21.83;;;11.80;;
51382;SDS011;37475;43.358;1.248;2023-01-15T05:46:56;18.10;;;10.45;;
51382;SDS011;37475;43.358;1.248;2023-01-15T05:49:26;17.15;;;8.98;;
51382;SDS011;37475;43.358;1.248;2023-01-15T05:51:55;14.50;;;8.27;;
51382;SDS011;37475;43.358;1.248;2023-01-15T05:54:23;18.25;;;8.23;;
51382;SDS011;37475;43.358;1.248;2023-01-15T05:56:51;13.93;;;7.90;;
51382;SDS011;37475;43.358;1.248;2023-01-15T05:59:19;12.57;;;7.13;;
51382;SDS011;37475;43.358;1.248;2023-01-15T06:01:48;14.98;;;7.45;;
51382;SDS011;37475;43.358;1.248;2023-01-15T06:04:14;16.30;;;8.05;;
51382;SDS011;37475;43.358;1.248;2023-01-15T06:06:44;13.73;;;7.60;;
51382;SDS011;37475;43.358;1.248;2023-01-15T06:09:11;16.33;;;8.43;;
51382;SDS011;37475;43.358;1.248;2023-01-15T06:11:38;16.40;;;7.82;;
51382;SDS011;37475;43.358;1.248;2023-01-15T06:14:04;16.27;;;8.57;;
51382;SDS011;37475;43.358;1.248;2023-01-15T06:16:31;14.13;;;7.93;;
51382;SDS011;37475;43.358;1.248;2023-01-15T06:19:02;16.90;;;9.57;;
51382;SDS011;37475;43.358;1.248;2023-01-15T06:21:30;18.58;;;9.70;;
51382;SDS011;37475;43.358;1.248;2023-01-15T06:23:58;16.80;;;8.43;;
51382;SDS011;37475;43.358;1.248;2023-01-15T06:26:25;16.25;;;8.10;;
51382;SDS011;37475;43.358;1.248;2023-01-15T06:28:51;14.60;;;8.35;;
51382;SDS011;37475;43.358;1.248;2023-01-15T06:31:18;15.43;;;8.18;;
51382;SDS011;37475;43.358;1.248;2023-01-15T06:33:47;15.23;;;8.00;;
51382;SDS011;37475;43.358;1.248;2023-01-15T06:36:14;16.05;;;7.95;;
51382;SDS011;37475;43.358;1.248;2023-01-15T06:38:48;14.70;;;8.32;;
51382;SDS011;37475;43.358;1.248;2023-01-15T06:41:15;16.27;;;8.45;;
51382;SDS011;37475;43.358;1.248;2023-01-15T06:44:04;15.00;;;7.85;;
51382;SDS011;37475;43.358;1.248;2023-01-15T06:46:49;17.55;;;8.25;;
51382;SDS011;37475;43.358;1.248;2023-01-15T06:49:35;18.75;;;8.82;;
51382;SDS011;37475;43.358;1.248;2023-01-15T06:52:01;18.77;;;8.02;;
51382;SDS011;37475;43.358;1.248;2023-01-15T06:54:28;17.08;;;7.72;;
51382;SDS011;37475;43.358;1.248;2023-01-15T06:56:54;10.38;;;4.65;;
51382;SDS011;37475;43.358;1.248;2023-01-15T06:59:20;10.20;;;6.45;;
51382;SDS011;37475;43.358;1.248;2023-01-15T07:01:46;10.93;;;5.63;;
51382;SDS011;37475;43.358;1.248;2023-01-15T07:04:12;14.77;;;5.40;;
51382;SDS011;37475;43.358;1.248;2023-01-15T07:06:39;10.40;;;5.25;;
51382;SDS011;37475;43.358;1.248;2023-01-15T07:09:05;11.20;;;4.85;;
51382;SDS011;37475;43.358;1.248;2023-01-15T07:11:31;10.52;;;5.65;;
51382;SDS011;37475;43.358;1.248;2023-01-15T07:13:57;11.80;;;5.55;;
51382;SDS011;37475;43.358;1.248;2023-01-15T07:16:32;12.23;;;5.43;;
51382;SDS011;37475;43.358;1.248;2023-01-15T07:18:59;13.77;;;2.20;;
51382;SDS011;37475;43.358;1.248;2023-01-15T07:21:26;6.85;;;1.40;;
51382;SDS011;37475;43.358;1.248;2023-01-15T07:23:52;3.20;;;1.13;;
51382;SDS011;37475;43.358;1.248;2023-01-15T07:26:19;6.60;;;1.50;;
51382;SDS011;37475;43.358;1.248;2023-01-15T07:28:45;2.83;;;0.77;;
51382;SDS011;37475;43.358;1.248;2023-01-15T07:31:11;2.15;;;0.73;;
51382;SDS011;37475;43.358;1.248;2023-01-15T07:33:36;2.78;;;0.73;;
51382;SDS011;37475;43.358;1.248;2023-01-15T07:36:03;2.10;;;0.90;;
51382;SDS011;37475;43.358;1.248;2023-01-15T07:38:30;2.78;;;0.60;;
51382;SDS011;37475;43.358;1.248;2023-01-15T07:40:56;1.52;;;0.50;;
51382;SDS011;37475;43.358;1.248;2023-01-15T07:43:41;2.00;;;0.50;;
51382;SDS011;37475;43.358;1.248;2023-01-15T07:46:26;2.05;;;0.60;;
51382;SDS011;37475;43.358;1.248;2023-01-15T07:49:12;2.17;;;0.40;;
51382;SDS011;37475;43.358;1.248;2023-01-15T07:51:57;1.75;;;0.52;;
51382;SDS011;37475;43.358;1.248;2023-01-15T07:54:22;1.90;;;0.70;;
51382;SDS011;37475;43.358;1.248;2023-01-15T07:56:49;0.90;;;0.50;;
51382;SDS011;37475;43.358;1.248;2023-01-15T07:59:17;1.58;;;0.50;;
51382;SDS011;37475;43.358;1.248;2023-01-15T08:01:44;2.25;;;0.50;;
51382;SDS011;37475;43.358;1.248;2023-01-15T08:04:10;1.05;;;0.50;;
51382;SDS011;37475;43.358;1.248;2023-01-15T08:06:36;0.82;;;0.50;;
51382;SDS011;37475;43.358;1.248;2023-01-15T08:09:02;0.73;;;0.40;;
51382;SDS011;37475;43.358;1.248;2023-01-15T08:11:28;1.17;;;0.40;;
51382;SDS011;37475;43.358;1.248;2023-01-15T08:14:13;1.15;;;0.50;;
51382;SDS011;37475;43.358;1.248;2023-01-15T08:16:57;1.73;;;0.80;;
51382;SDS011;37475;43.358;1.248;2023-01-15T08:19:23;0.73;;;0.40;;
51382;SDS011;37475;43.358;1.248;2023-01-15T08:21:49;1.20;;;0.55;;
51382;SDS011;37475;43.358;1.248;2023-01-15T08:24:16;1.95;;;0.60;;
51382;SDS011;37475;43.358;1.248;2023-01-15T08:26:42;0.85;;;0.40;;
51382;SDS011;37475;43.358;1.248;2023-01-15T08:29:08;0.65;;;0.40;;
51382;SDS011;37475;43.358;1.248;2023-01-15T08:31:33;1.45;;;0.45;;
51382;SDS011;37475;43.358;1.248;2023-01-15T08:34:01;1.20;;;0.50;;
51382;SDS011;37475;43.358;1.248;2023-01-15T08:36:27;0.85;;;0.40;;
51382;SDS011;37475;43.358;1.248;2023-01-15T08:38:53;0.68;;;0.20;;
51382;SDS011;37475;43.358;1.248;2023-01-15T08:41:19;0.93;;;0.52;;
51382;SDS011;37475;43.358;1.248;2023-01-15T08:43:44;0.95;;;0.43;;
51382;SDS011;37475;43.358;1.248;2023-01-15T08:46:10;1.17;;;0.47;;
51382;SDS011;37475;43.358;1.248;2023-01-15T08:48:36;2.08;;;0.40;;
51382;SDS011;37475;43.358;1.248;2023-01-15T08:51:03;0.85;;;0.50;;
51382;SDS011;37475;43.358;1.248;2023-01-15T08:53:34;1.15;;;0.50;;
51382;SDS011;37475;43.358;1.248;2023-01-15T08:56:01;2.03;;;0.70;;
51382;SDS011;37475;43.358;1.248;2023-01-15T08:58:31;0.90;;;0.60;;
51382;SDS011;37475;43.358;1.248;2023-01-15T09:01:03;0.93;;;0.55;;
51382;SDS011;37475;43.358;1.248;2023-01-15T09:03:32;1.42;;;0.60;;
51382;SDS011;37475;43.358;1.248;2023-01-15T09:05:58;5.40;;;0.82;;
51382;SDS011;37475;43.358;1.248;2023-01-15T09:08:25;1.10;;;0.60;;
51382;SDS011;37475;43.358;1.248;2023-01-15T09:10:59;1.15;;;0.60;;
51382;SDS011;37475;43.358;1.248;2023-01-15T09:13:27;1.13;;;0.63;;
51382;SDS011;37475;43.358;1.248;2023-01-15T09:16:00;2.28;;;0.82;;
51382;SDS011;37475;43.358;1.248;2023-01-15T09:18:28;3.25;;;0.75;;
51382;SDS011;37475;43.358;1.248;2023-01-15T09:20:55;2.20;;;0.90;;
51382;SDS011;37475;43.358;1.248;2023-01-15T09:23:21;2.13;;;1.00;;
51382;SDS011;37475;43.358;1.248;2023-01-15T09:25:52;2.72;;;0.85;;
51382;SDS011;37475;43.358;1.248;2023-01-15T09:28:30;1.23;;;0.50;;
51382;SDS011;37475;43.358;1.248;2023-01-15T09:30:58;2.55;;;0.70;;
51382;SDS011;37475;43.358;1.248;2023-01-15T09:33:25;2.35;;;0.90;;
51382;SDS011;37475;43.358;1.248;2023-01-15T09:35:51;1.52;;;0.40;;
51382;SDS011;37475;43.358;1.248;2023-01-15T09:38:18;1.90;;;0.70;;
51382;SDS011;37475;43.358;1.248;2023-01-15T09:40:47;4.60;;;0.70;;
51382;SDS011;37475;43.358;1.248;2023-01-15T09:46:19;3.95;;;0.80;;
51382;SDS011;37475;43.358;1.248;2023-01-15T09:48:59;1.88;;;0.60;;
51382;SDS011;37475;43.358;1.248;2023-01-15T09:57:28;3.85;;;0.90;;
51382;SDS011;37475;43.358;1.248;2023-01-15T09:59:55;2.20;;;0.50;;
51382;SDS011;37475;43.358;1.248;2023-01-15T10:05:02;1.20;;;0.55;;
51382;SDS011;37475;43.358;1.248;2023-01-15T10:08:10;4.18;;;0.77;;
51382;SDS011;37475;43.358;1.248;2023-01-15T10:10:50;2.45;;;0.95;;
51382;SDS011;37475;43.358;1.248;2023-01-15T10:13:30;1.77;;;0.50;;
51382;SDS011;37475;43.358;1.248;2023-01-15T10:16:08;2.83;;;0.73;;
51382;SDS011;37475;43.358;1.248;2023-01-15T10:18:35;4.50;;;1.02;;
51382;SDS011;37475;43.358;1.248;2023-01-15T10:21:27;2.70;;;0.70;;
51382;SDS011;37475;43.358;1.248;2023-01-15T10:24:39;2.35;;;0.70;;
51382;SDS011;37475;43.358;1.248;2023-01-15T10:27:21;1.48;;;0.40;;
51382;SDS011;37475;43.358;1.248;2023-01-15T10:36:03;1.00;;;0.50;;
51382;SDS011;37475;43.358;1.248;2023-01-15T10:38:46;2.05;;;0.52;;
51382;SDS011;37475;43.358;1.248;2023-01-15T10:41:41;2.05;;;0.60;;
51382;SDS011;37475;43.358;1.248;2023-01-15T10:47:18;1.75;;;0.77;;
51382;SDS011;37475;43.358;1.248;2023-01-15T10:49:53;1.60;;;0.65;;
51382;SDS011;37475;43.358;1.248;2023-01-15T10:52:28;4.68;;;0.80;;
51382;SDS011;37475;43.358;1.248;2023-01-15T10:55:31;2.25;;;0.55;;
51382;SDS011;37475;43.358;1.248;2023-01-15T10:57:52;3.17;;;0.63;;
51382;SDS011;37475;43.358;1.248;2023-01-15T11:00:33;2.00;;;0.50;;
51382;SDS011;37475;43.358;1.248;2023-01-15T11:03:02;5.72;;;1.65;;
51382;SDS011;37475;43.358;1.248;2023-01-15T11:05:32;3.63;;;1.33;;
51382;SDS011;37475;43.358;1.248;2023-01-15T11:08:00;2.72;;;0.93;;
51382;SDS011;37475;43.358;1.248;2023-01-15T11:10:30;5.53;;;0.55;;
51382;SDS011;37475;43.358;1.248;2023-01-15T11:12:58;2.33;;;0.50;;
51382;SDS011;37475;43.358;1.248;2023-01-15T11:15:54;2.20;;;0.70;;
51382;SDS011;37475;43.358;1.248;2023-01-15T11:18:42;5.07;;;2.28;;
51382;SDS011;37475;43.358;1.248;2023-01-15T11:21:29;3.75;;;1.52;;
51382;SDS011;37475;43.358;1.248;2023-01-15T11:23:56;2.88;;;0.70;;
51382;SDS011;37475;43.358;1.248;2023-01-15T11:26:31;2.70;;;0.50;;
51382;SDS011;37475;43.358;1.248;2023-01-15T11:28:58;3.47;;;2.30;;
51382;SDS011;37475;43.358;1.248;2023-01-15T11:31:37;1.50;;;0.70;;
51382;SDS011;37475;43.358;1.248;2023-01-15T11:34:06;3.70;;;0.70;;
51382;SDS011;37475;43.358;1.248;2023-01-15T11:36:45;6.95;;;3.45;;
51382;SDS011;37475;43.358;1.248;2023-01-15T11:39:21;2.25;;;0.85;;
51382;SDS011;37475;43.358;1.248;2023-01-15T11:42:25;1.70;;;0.60;;
51382;SDS011;37475;43.358;1.248;2023-01-15T11:45:10;2.30;;;0.60;;
51382;SDS011;37475;43.358;1.248;2023-01-15T11:48:00;1.13;;;0.50;;
51382;SDS011;37475;43.358;1.248;2023-01-15T11:53:21;0.90;;;0.40;;
51382;SDS011;37475;43.358;1.248;2023-01-15T11:55:59;3.17;;;0.98;;
51382;SDS011;37475;43.358;1.248;2023-01-15T11:58:31;1.10;;;0.50;;
51382;SDS011;37475;43.358;1.248;2023-01-15T12:01:11;0.70;;;0.50;;
51382;SDS011;37475;43.358;1.248;2023-01-15T12:04:28;3.17;;;0.70;;
51382;SDS011;37475;43.358;1.248;2023-01-15T12:07:02;2.75;;;1.05;;
51382;SDS011;37475;43.358;1.248;2023-01-15T12:21:55;2.20;;;0.90;;
51382;SDS011;37475;43.358;1.248;2023-01-15T12:32:54;3.97;;;1.60;;
51382;SDS011;37475;43.358;1.248;2023-01-15T12:40:48;1.63;;;0.60;;
51382;SDS011;37475;43.358;1.248;2023-01-15T12:43:24;1.93;;;0.63;;
51382;SDS011;37475;43.358;1.248;2023-01-15T12:46:12;2.45;;;0.80;;
51382;SDS011;37475;43.358;1.248;2023-01-15T12:48:49;3.47;;;0.80;;
51382;SDS011;37475;43.358;1.248;2023-01-15T12:51:32;3.95;;;1.02;;
51382;SDS011;37475;43.358;1.248;2023-01-15T12:54:10;2.63;;;0.80;;
51382;SDS011;37475;43.358;1.248;2023-01-15T12:59:38;2.83;;;0.88;;
51382;SDS011;37475;43.358;1.248;2023-01-15T13:02:17;2.22;;;1.20;;
51382;SDS011;37475;43.358;1.248;2023-01-15T13:05:12;3.80;;;0.70;;
51382;SDS011;37475;43.358;1.248;2023-01-15T13:10:43;4.68;;;1.25;;
51382;SDS011;37475;43.358;1.248;2023-01-15T13:13:13;1.60;;;0.60;;
51382;SDS011;37475;43.358;1.248;2023-01-15T13:16:03;2.83;;;1.10;;
51382;SDS011;37475;43.358;1.248;2023-01-15T13:21:25;2.70;;;0.95;;
51382;SDS011;37475;43.358;1.248;2023-01-15T13:26:39;2.35;;;0.60;;
51382;SDS011;37475;43.358;1.248;2023-01-15T13:29:16;2.85;;;0.90;;
51382;SDS011;37475;43.358;1.248;2023-01-15T13:42:37;4.10;;;1.35;;
51382;SDS011;37475;43.358;1.248;2023-01-15T13:48:07;3.22;;;0.80;;
51382;SDS011;37475;43.358;1.248;2023-01-15T13:50:42;3.85;;;1.00;;
51382;SDS011;37475;43.358;1.248;2023-01-15T13:56:27;4.07;;;1.67;;
51382;SDS011;37475;43.358;1.248;2023-01-15T14:06:46;2.70;;;0.82;;
51382;SDS011;37475;43.358;1.248;2023-01-15T14:29:22;2.53;;;0.80;;
51382;SDS011;37475;43.358;1.248;2023-01-15T14:34:55;3.63;;;0.77;;
51382;SDS011;37475;43.358;1.248;2023-01-15T14:37:42;2.17;;;0.60;;
51382;SDS011;37475;43.358;1.248;2023-01-15T14:42:47;8.73;;;3.40;;
51382;SDS011;37475;43.358;1.248;2023-01-15T14:48:04;7.00;;;1.10;;
51382;SDS011;37475;43.358;1.248;2023-01-15T14:50:41;2.95;;;0.65;;
51382;SDS011;37475;43.358;1.248;2023-01-15T14:56:24;5.72;;;1.30;;
51382;SDS011;37475;43.358;1.248;2023-01-15T14:58:50;2.88;;;1.10;;
51382;SDS011;37475;43.358;1.248;2023-01-15T15:01:41;2.42;;;1.10;;
51382;SDS011;37475;43.358;1.248;2023-01-15T15:04:35;4.65;;;1.33;;
51382;SDS011;37475;43.358;1.248;2023-01-15T15:09:42;4.93;;;1.90;;
51382;SDS011;37475;43.358;1.248;2023-01-15T15:15:13;5.60;;;1.85;;
51382;SDS011;37475;43.358;1.248;2023-01-15T15:20:51;4.70;;;1.52;;
51382;SDS011;37475;43.358;1.248;2023-01-15T15:26:34;2.70;;;1.00;;
51382;SDS011;37475;43.358;1.248;2023-01-15T15:31:37;4.50;;;1.45;;
51382;SDS011;37475;43.358;1.248;2023-01-15T15:34:31;2.63;;;1.00;;
51382;SDS011;37475;43.358;1.248;2023-01-15T15:37:03;3.90;;;1.33;;
51382;SDS011;37475;43.358;1.248;2023-01-15T15:39:43;3.83;;;1.30;;
51382;SDS011;37475;43.358;1.248;2023-01-15T15:42:54;4.47;;;1.88;;
51382;SDS011;37475;43.358;1.248;2023-01-15T15:45:50;5.68;;;1.85;;
51382;SDS011;37475;43.358;1.248;2023-01-15T15:48:36;4.95;;;2.20;;
51382;SDS011;37475;43.358;1.248;2023-01-15T15:56:43;5.25;;;1.98;;
51382;SDS011;37475;43.358;1.248;2023-01-15T16:04:49;4.13;;;1.50;;
51382;SDS011;37475;43.358;1.248;2023-01-15T16:07:23;6.07;;;1.02;;
51382;SDS011;37475;43.358;1.248;2023-01-15T16:10:14;4.53;;;1.50;;
51382;SDS011;37475;43.358;1.248;2023-01-15T16:12:48;8.55;;;2.50;;
51382;SDS011;37475;43.358;1.248;2023-01-15T16:15:18;5.82;;;2.15;;
51382;SDS011;37475;43.358;1.248;2023-01-15T16:18:15;7.03;;;2.33;;
51382;SDS011;37475;43.358;1.248;2023-01-15T16:20:53;6.20;;;2.53;;
51382;SDS011;37475;43.358;1.248;2023-01-15T16:23:21;7.97;;;1.40;;
51382;SDS011;37475;43.358;1.248;2023-01-15T16:28:39;7.13;;;2.80;;
51382;SDS011;37475;43.358;1.248;2023-01-15T16:31:13;5.60;;;1.50;;
51382;SDS011;37475;43.358;1.248;2023-01-15T16:33:41;5.65;;;1.20;;
51382;SDS011;37475;43.358;1.248;2023-01-15T16:36:07;6.65;;;1.48;;
51382;SDS011;37475;43.358;1.248;2023-01-15T16:38:38;5.65;;;1.40;;
51382;SDS011;37475;43.358;1.248;2023-01-15T16:41:15;7.10;;;1.88;;
51382;SDS011;37475;43.358;1.248;2023-01-15T16:44:06;10.90;;;3.92;;
51382;SDS011;37475;43.358;1.248;2023-01-15T16:46:33;9.10;;;3.33;;
51382;SDS011;37475;43.358;1.248;2023-01-15T16:51:45;9.40;;;3.03;;
51382;SDS011;37475;43.358;1.248;2023-01-15T16:59:55;46.38;;;18.55;;
51382;SDS011;37475;43.358;1.248;2023-01-15T17:02:23;18.50;;;6.10;;
51382;SDS011;37475;43.358;1.248;2023-01-15T17:04:58;11.35;;;3.92;;
51382;SDS011;37475;43.358;1.248;2023-01-15T17:10:02;51.22;;;16.10;;
51382;SDS011;37475;43.358;1.248;2023-01-15T17:12:30;25.38;;;8.88;;
51382;SDS011;37475;43.358;1.248;2023-01-15T17:17:42;8.23;;;2.80;;
51382;SDS011;37475;43.358;1.248;2023-01-15T17:20:16;19.55;;;9.52;;
51382;SDS011;37475;43.358;1.248;2023-01-15T17:22:44;18.48;;;8.60;;
51382;SDS011;37475;43.358;1.248;2023-01-15T17:25:45;13.00;;;6.57;;
51382;SDS011;37475;43.358;1.248;2023-01-15T17:28:04;13.88;;;7.03;;
51382;SDS011;37475;43.358;1.248;2023-01-15T17:30:30;15.73;;;8.40;;
51382;SDS011;37475;43.358;1.248;2023-01-15T17:33:01;25.80;;;12.57;;
51382;SDS011;37475;43.358;1.248;2023-01-15T17:35:36;12.48;;;6.25;;
51382;SDS011;37475;43.358;1.248;2023-01-15T17:38:05;17.23;;;6.93;;
51382;SDS011;37475;43.358;1.248;2023-01-15T17:40:35;17.90;;;7.57;;
51382;SDS011;37475;43.358;1.248;2023-01-15T17:43:03;11.77;;;5.47;;
51382;SDS011;37475;43.358;1.248;2023-01-15T17:45:30;10.30;;;5.22;;
51382;SDS011;37475;43.358;1.248;2023-01-15T17:47:57;17.33;;;7.95;;
51382;SDS011;37475;43.358;1.248;2023-01-15T17:50:24;13.73;;;5.00;;
51382;SDS011;37475;43.358;1.248;2023-01-15T17:52:50;20.67;;;11.20;;
51382;SDS011;37475;43.358;1.248;2023-01-15T17:55:17;28.48;;;13.55;;
51382;SDS011;37475;43.358;1.248;2023-01-15T17:58:04;21.58;;;10.02;;
51382;SDS011;37475;43.358;1.248;2023-01-15T18:00:50;14.73;;;6.07;;
51382;SDS011;37475;43.358;1.248;2023-01-15T18:03:36;12.38;;;6.13;;
51382;SDS011;37475;43.358;1.248;2023-01-15T18:06:27;12.98;;;6.70;;
51382;SDS011;37475;43.358;1.248;2023-01-15T18:08:54;14.00;;;6.30;;
51382;SDS011;37475;43.358;1.248;2023-01-15T18:11:23;14.05;;;6.63;;
51382;SDS011;37475;43.358;1.248;2023-01-15T18:13:48;11.32;;;5.03;;